Time;durP1;ratioP1;P1;durP2;ratioP2;P2;SDS_P1;SDS_P2;PMS_P1;PMS_P2;Temp;Humidity;BMP_temperature;BMP_pressure;BME280_temperature;BME280_humidity;BME280_pressure;Samples;Min_cycle;Max_cycle;Signal;HPM_P1;HPM_P2
2020/12/13 00:00:15;;;;;;;8.77;6.20;;;9.00;69.70;;;;;;5005526;28;20113;-73
2020/12/13 00:02:41;;;;;;;8.45;6.47;;;9.20;69.80;;;;;;5005185;28;20026;-78
2020/12/13 00:05:07;;;;;;;8.93;6.25;;;9.20;69.80;;;;;;5004122;28;20623;-74
2020/12/13 00:07:32;;;;;;;7.38;6.40;;;9.10;69.80;;;;;;5005902;28;20116;-74
2020/12/13 00:09:58;;;;;;;7.63;6.18;;;9.10;69.70;;;;;;5005862;28;20156;-73
2020/12/13 00:12:24;;;;;;;8.75;6.88;;;9.20;69.80;;;;;;5004495;28;20044;-74
2020/12/13 00:14:49;;;;;;;7.30;5.82;;;9.10;69.70;;;;;;5006240;28;20034;-75
2020/12/13 00:17:17;;;;;;;7.65;5.93;;;9.10;69.70;;;;;;5004137;28;20046;-76
2020/12/13 00:19:42;;;;;;;8.73;6.85;;;9.10;69.70;;;;;;5005440;28;20065;-74
2020/12/13 00:22:08;;;;;;;7.50;6.18;;;9.10;69.70;;;;;;5005988;28;20103;-75
2020/12/13 00:24:33;;;;;;;7.57;5.28;;;9.10;69.70;;;;;;5004336;28;20041;-74
2020/12/13 00:26:59;;;;;;;7.22;5.70;;;9.10;69.70;;;;;;5002293;28;20033;-75
2020/12/13 00:29:24;;;;;;;8.57;6.68;;;9.10;69.70;;;;;;5004526;28;20030;-77
2020/12/13 00:31:50;;;;;;;7.20;5.70;;;9.10;69.70;;;;;;5004443;28;20057;-72
2020/12/13 00:34:16;;;;;;;9.20;6.15;;;9.10;69.60;;;;;;4995414;28;20031;-76
2020/12/13 00:36:42;;;;;;;7.28;5.72;;;9.10;69.70;;;;;;5003188;28;20032;-76
2020/12/13 00:39:07;;;;;;;7.13;5.75;;;9.10;69.60;;;;;;4996587;28;20108;-76
2020/12/13 00:41:33;;;;;;;7.88;6.22;;;9.10;69.60;;;;;;5004630;28;20477;-76
2020/12/13 00:43:59;;;;;;;8.02;5.70;;;9.10;69.60;;;;;;5006947;28;20105;-75
2020/12/13 00:46:25;;;;;;;5.68;4.60;;;9.10;69.60;;;;;;4998540;28;20037;-75
2020/12/13 00:48:50;;;;;;;7.03;5.75;;;9.10;69.70;;;;;;5006089;28;20408;-74
2020/12/13 00:51:26;;;;;;;7.00;5.90;;;9.10;69.70;;;;;;5004713;28;20112;-75
2020/12/13 00:53:52;;;;;;;7.22;5.60;;;9.10;69.80;;;;;;4982709;28;20034;-74
2020/12/13 00:56:18;;;;;;;6.78;5.63;;;9.00;69.70;;;;;;5004259;28;20029;-75
2020/12/13 00:58:43;;;;;;;6.88;5.78;;;9.00;69.70;;;;;;5000611;28;20065;-75
2020/12/13 01:01:09;;;;;;;6.68;5.18;;;9.20;69.90;;;;;;5003858;28;20037;-76
2020/12/13 01:03:34;;;;;;;7.45;5.88;;;9.10;69.90;;;;;;5002627;28;20084;-75
2020/12/13 01:06:00;;;;;;;7.60;5.85;;;9.00;69.80;;;;;;5005671;28;20500;-75
2020/12/13 01:08:25;;;;;;;6.88;5.72;;;9.10;69.90;;;;;;5002767;28;20109;-76
2020/12/13 01:10:51;;;;;;;8.07;6.55;;;9.10;69.90;;;;;;5003124;28;20080;-74
2020/12/13 01:13:16;;;;;;;9.02;6.00;;;9.10;69.80;;;;;;5001681;28;20041;-75
2020/12/13 01:15:42;;;;;;;8.27;6.45;;;9.10;69.80;;;;;;5002852;28;20060;-74
2020/12/13 01:18:07;;;;;;;7.07;5.53;;;9.10;69.80;;;;;;5003948;28;20033;-74
2020/12/13 01:20:33;;;;;;;7.40;5.40;;;9.10;69.90;;;;;;5003545;28;20038;-75
2020/12/13 01:22:58;;;;;;;7.18;5.22;;;9.20;70.00;;;;;;5002768;28;20112;-76
2020/12/13 01:25:24;;;;;;;8.50;6.07;;;9.20;70.00;;;;;;5003946;28;20066;-75
2020/12/13 01:27:49;;;;;;;7.50;5.28;;;9.10;69.90;;;;;;4995769;28;20026;-75
2020/12/13 01:30:15;;;;;;;9.50;6.13;;;9.10;69.90;;;;;;5006783;28;20115;-75
2020/12/13 01:32:41;;;;;;;6.65;4.70;;;9.30;70.00;;;;;;5001486;28;20034;-75
2020/12/13 01:35:09;;;;;;;7.80;5.85;;;9.20;70.00;;;;;;5003364;28;20496;-75
2020/12/13 01:37:34;;;;;;;7.07;5.20;;;9.10;69.90;;;;;;5005607;28;20114;-76
2020/12/13 01:40:00;;;;;;;7.30;5.32;;;9.10;69.80;;;;;;5003963;28;20113;-75
2020/12/13 01:42:26;;;;;;;8.63;6.32;;;9.10;69.80;;;;;;5000487;28;20056;-78
2020/12/13 01:44:51;;;;;;;7.05;5.43;;;9.10;69.70;;;;;;5003854;28;20030;-75
2020/12/13 01:47:21;;;;;;;8.27;6.25;;;9.10;69.70;;;;;;5002833;28;20065;-75
2020/12/13 01:49:48;;;;;;;8.40;6.50;;;9.20;69.80;;;;;;5000926;28;20061;-73
2020/12/13 01:55:03;;;;;;;10.82;7.10;;;9.10;69.90;;;;;;5003037;28;20030;-72
2020/12/13 01:57:36;;;;;;;9.38;6.55;;;9.20;70.10;;;;;;5000608;28;20100;-74
2020/12/13 02:00:10;;;;;;;8.65;5.50;;;9.10;70.00;;;;;;5002277;28;20026;-74
2020/12/13 02:02:43;;;;;;;8.02;5.60;;;9.10;70.00;;;;;;5001725;28;20084;-75
2020/12/13 02:05:09;;;;;;;9.00;5.88;;;9.10;70.00;;;;;;5003646;28;20037;-73
2020/12/13 02:07:37;;;;;;;8.45;5.60;;;9.10;70.50;;;;;;4985601;28;512780;-73
2020/12/13 02:10:06;;;;;;;9.20;6.30;;;9.10;69.90;;;;;;5002962;28;20037;-73
2020/12/13 02:12:31;;;;;;;7.63;5.53;;;9.30;70.00;;;;;;5037339;23;20093;-76
2020/12/13 02:14:57;;;;;;;12.13;6.07;;;9.10;69.90;;;;;;5014433;28;20113;-76
2020/12/13 02:17:22;;;;;;;8.63;5.68;;;9.10;70.40;;;;;;5020541;28;20112;-76
2020/12/13 02:19:48;;;;;;;8.27;5.60;;;9.10;69.90;;;;;;5021236;28;20104;-77
2020/12/13 02:22:14;;;;;;;8.27;5.95;;;9.10;69.90;;;;;;5026046;28;20500;-76
2020/12/13 02:24:39;;;;;;;10.00;6.28;;;9.10;69.90;;;;;;5024110;28;20041;-76
2020/12/13 02:27:06;;;;;;;9.00;5.80;;;9.10;70.00;;;;;;5022752;28;20025;-76
2020/12/13 02:29:32;;;;;;;11.35;7.07;;;9.30;70.10;;;;;;5022764;28;20519;-76
2020/12/13 02:31:58;;;;;;;10.48;6.50;;;9.10;70.00;;;;;;5021742;28;20038;-76
2020/12/13 02:34:23;;;;;;;9.65;6.53;;;9.10;70.00;;;;;;5022559;28;20508;-76
2020/12/13 02:36:49;;;;;;;12.27;6.55;;;9.10;70.10;;;;;;5022734;28;20033;-77
2020/12/13 02:39:14;;;;;;;8.63;6.20;;;9.10;70.10;;;;;;5024012;28;20029;-76
2020/12/13 02:41:40;;;;;;;13.48;6.07;;;9.20;70.10;;;;;;5021403;28;20041;-76
2020/12/13 02:44:05;;;;;;;10.52;6.95;;;9.10;70.10;;;;;;5021673;28;20175;-76
2020/12/13 02:46:31;;;;;;;7.50;5.60;;;9.10;70.10;;;;;;5023998;28;20038;-76
2020/12/13 02:48:56;;;;;;;9.45;6.07;;;9.10;70.10;;;;;;5022207;28;20029;-76
2020/12/13 02:51:22;;;;;;;9.02;5.85;;;9.20;70.10;;;;;;5023864;28;20053;-77
2020/12/13 02:53:47;;;;;;;9.57;5.53;;;9.10;70.00;;;;;;5007317;28;20032;-75
2020/12/13 02:56:13;;;;;;;10.85;6.10;;;9.10;70.00;;;;;;5021490;28;20038;-76
2020/12/13 02:58:38;;;;;;;9.40;5.95;;;9.00;69.90;;;;;;5021089;28;20045;-76
2020/12/13 03:01:04;;;;;;;9.48;5.68;;;9.10;70.10;;;;;;5020620;28;20056;-76
2020/12/13 03:03:29;;;;;;;9.85;6.10;;;9.10;70.00;;;;;;5021493;28;20434;-76
2020/12/13 03:05:55;;;;;;;8.90;6.15;;;9.10;70.10;;;;;;5022927;28;20021;-76
2020/12/13 03:08:20;;;;;;;9.75;6.03;;;9.10;70.10;;;;;;5023971;28;20033;-76
2020/12/13 03:10:46;;;;;;;8.48;6.50;;;9.20;70.20;;;;;;5022830;28;20036;-76
2020/12/13 03:13:11;;;;;;;11.10;6.43;;;9.10;70.20;;;;;;5020088;28;20072;-76
2020/12/13 03:15:37;;;;;;;9.05;6.15;;;9.20;70.20;;;;;;5019589;28;20037;-76
2020/12/13 03:18:02;;;;;;;11.98;7.00;;;9.20;70.30;;;;;;5021378;28;20022;-76
2020/12/13 03:20:28;;;;;;;9.05;6.47;;;9.20;70.30;;;;;;5022200;28;20037;-76
2020/12/13 03:22:53;;;;;;;8.48;5.72;;;9.20;70.30;;;;;;5023329;28;20029;-76
2020/12/13 03:25:18;;;;;;;10.70;5.90;;;9.10;70.20;;;;;;5025787;28;20034;-76
2020/12/13 03:27:44;;;;;;;7.45;5.38;;;9.20;70.20;;;;;;5023027;28;20065;-76
2020/12/13 03:30:10;;;;;;;8.70;6.10;;;9.20;70.10;;;;;;5027768;28;20053;-76
2020/12/13 03:32:36;;;;;;;11.02;6.03;;;9.20;70.10;;;;;;5025161;28;20026;-76
2020/12/13 03:35:03;;;;;;;7.57;5.70;;;9.20;70.20;;;;;;5025061;28;20508;-77
2020/12/13 03:37:29;;;;;;;9.32;5.78;;;9.20;70.20;;;;;;5027210;28;20048;-76
2020/12/13 03:39:54;;;;;;;8.23;5.88;;;9.20;70.30;;;;;;5009273;28;20113;-76
2020/12/13 03:42:20;;;;;;;10.95;7.03;;;9.40;70.30;;;;;;5027818;28;20132;-76
2020/12/13 03:44:45;;;;;;;9.50;5.93;;;9.20;70.20;;;;;;5024725;28;20508;-76
2020/12/13 03:47:11;;;;;;;8.52;6.10;;;9.20;70.10;;;;;;5027328;28;20029;-76
2020/12/13 03:49:36;;;;;;;8.43;5.78;;;9.30;70.20;;;;;;5024660;28;20472;-76
2020/12/13 03:52:02;;;;;;;9.20;6.00;;;9.20;70.10;;;;;;5026812;28;20022;-76
2020/12/13 03:54:27;;;;;;;10.27;6.78;;;9.20;70.10;;;;;;5026741;28;20400;-76
2020/12/13 03:56:53;;;;;;;9.80;6.35;;;9.10;70.00;;;;;;5027128;28;20859;-76
2020/12/13 03:59:18;;;;;;;9.68;6.47;;;9.20;70.10;;;;;;5023445;28;20045;-76
2020/12/13 04:01:44;;;;;;;9.65;6.82;;;9.20;70.00;;;;;;5026052;28;20112;-76
2020/12/13 04:04:09;;;;;;;9.88;6.57;;;9.10;70.00;;;;;;5024525;28;20037;-76
2020/12/13 04:06:35;;;;;;;11.55;6.70;;;9.20;70.10;;;;;;5026155;28;20179;-77
2020/12/13 04:09:00;;;;;;;9.32;6.80;;;9.20;70.10;;;;;;5026877;28;20037;-76
2020/12/13 04:11:26;;;;;;;11.15;6.65;;;9.10;70.10;;;;;;5025891;28;20440;-75
2020/12/13 04:13:51;;;;;;;9.88;6.75;;;9.20;70.20;;;;;;5022946;28;20164;-76
2020/12/13 04:16:17;;;;;;;11.13;6.57;;;9.20;70.30;;;;;;5026756;28;20045;-75
2020/12/13 04:18:42;;;;;;;11.07;6.47;;;9.20;70.30;;;;;;5023808;28;20033;-75
2020/12/13 04:21:08;;;;;;;9.80;6.00;;;9.20;70.40;;;;;;5025611;28;20034;-75
2020/12/13 04:23:33;;;;;;;7.97;5.07;;;9.20;70.40;;;;;;5025535;28;20021;-76
2020/12/13 04:25:59;;;;;;;10.45;6.35;;;9.40;70.40;;;;;;5009554;28;20017;-75
2020/12/13 04:28:24;;;;;;;8.77;5.63;;;9.20;70.30;;;;;;5022787;28;20033;-76
2020/12/13 04:30:50;;;;;;;9.65;5.97;;;9.20;70.30;;;;;;5025635;28;20095;-76
2020/12/13 04:33:15;;;;;;;10.40;6.20;;;9.20;70.20;;;;;;5023948;28;20025;-75
2020/12/13 04:35:41;;;;;;;9.95;6.93;;;9.10;70.20;;;;;;5008360;28;20030;-76
2020/12/13 04:38:06;;;;;;;8.95;5.75;;;9.20;70.20;;;;;;5026246;28;20021;-75
2020/12/13 04:40:34;;;;;;;9.55;6.47;;;9.20;70.20;;;;;;5024762;28;20060;-76
2020/12/13 04:43:00;;;;;;;9.27;5.90;;;9.20;70.20;;;;;;5023042;28;20048;-75
2020/12/13 04:45:26;;;;;;;11.90;6.25;;;9.20;70.30;;;;;;5022744;28;20037;-75
2020/12/13 04:48:06;;;;;;;9.63;6.40;;;9.20;70.40;;;;;;5024131;28;20125;-76
2020/12/13 04:50:37;;;;;;;8.60;5.53;;;9.20;70.70;;;;;;5022611;28;20037;-75
2020/12/13 04:53:05;;;;;;;8.50;5.63;;;9.20;70.50;;;;;;5023032;28;20060;-76
2020/12/13 04:55:32;;;;;;;8.82;5.47;;;9.20;70.50;;;;;;5023703;28;20035;-75
2020/12/13 04:57:57;;;;;;;10.55;7.95;;;9.20;70.40;;;;;;5025420;28;20057;-75
2020/12/13 05:00:26;;;;;;;10.82;5.82;;;9.40;70.50;;;;;;5024104;28;20556;-75
2020/12/13 05:02:56;;;;;;;8.68;5.53;;;9.30;70.50;;;;;;5016109;28;20064;-75
2020/12/13 05:05:21;;;;;;;10.80;6.97;;;9.30;70.50;;;;;;5023788;28;20057;-75
2020/12/13 05:07:47;;;;;;;9.25;5.57;;;9.30;70.40;;;;;;5023572;28;20030;-77
2020/12/13 05:10:12;;;;;;;10.50;5.50;;;9.20;70.40;;;;;;5007317;28;20034;-76
2020/12/13 05:12:38;;;;;;;8.30;5.60;;;9.20;70.40;;;;;;5021850;28;20064;-76
2020/12/13 05:15:04;;;;;;;8.60;5.47;;;9.20;70.40;;;;;;5023082;28;20087;-75
2020/12/13 05:17:32;;;;;;;6.20;4.88;;;9.30;70.40;;;;;;5024386;28;20029;-75
2020/12/13 05:19:58;;;;;;;7.78;4.90;;;9.30;70.40;;;;;;5024624;28;20033;-75
2020/12/13 05:22:23;;;;;;;8.35;4.78;;;9.30;70.40;;;;;;5023025;28;20561;-76
2020/12/13 05:24:49;;;;;;;9.98;5.10;;;9.30;70.40;;;;;;5022035;28;20037;-77
2020/12/13 05:27:21;;;;;;;7.95;5.53;;;9.30;70.30;;;;;;5024671;28;20025;-75
2020/12/13 05:29:49;;;;;;;9.55;4.95;;;9.20;70.30;;;;;;5024486;28;20032;-75
2020/12/13 05:32:18;;;;;;;6.32;4.63;;;9.30;70.30;;;;;;5024803;28;20037;-75
2020/12/13 05:34:46;;;;;;;7.60;4.80;;;9.40;70.40;;;;;;5023094;28;20087;-77
2020/12/13 05:37:16;;;;;;;7.32;4.80;;;9.30;70.40;;;;;;5024045;28;20503;-77
2020/12/13 05:39:52;;;;;;;6.18;4.60;;;9.20;70.40;;;;;;5022705;28;20053;-77
2020/12/13 05:42:32;;;;;;;5.88;4.22;;;9.30;70.70;;;;;;5023248;28;20447;-77
2020/12/13 05:45:12;;;;;;;5.45;4.18;;;9.30;70.70;;;;;;5023684;28;20036;-77
2020/12/13 05:50:34;;;;;;;4.30;3.60;;;9.30;70.50;;;;;;5025497;28;20040;-76
2020/12/13 05:53:02;;;;;;;6.25;4.15;;;9.30;70.50;;;;;;5022051;28;20083;-76
2020/12/13 05:55:28;;;;;;;4.95;3.60;;;9.30;71.10;;;;;;5022054;28;20037;-76
2020/12/13 05:57:54;;;;;;;4.47;3.42;;;9.20;70.40;;;;;;5024089;28;20063;-77
2020/12/13 06:00:21;;;;;;;4.88;3.55;;;9.30;70.50;;;;;;5023974;28;20489;-76
2020/12/13 06:02:49;;;;;;;4.85;3.08;;;9.20;70.40;;;;;;5024129;28;20037;-76
2020/12/13 06:05:15;;;;;;;4.38;3.35;;;9.20;70.40;;;;;;5021996;28;20034;-76
2020/12/13 06:07:48;;;;;;;5.30;3.72;;;9.30;70.50;;;;;;5013025;28;20038;-76
2020/12/13 06:10:24;;;;;;;5.13;4.05;;;9.30;70.60;;;;;;5024455;28;20025;-77
2020/12/13 06:12:58;;;;;;;4.63;3.22;;;9.30;70.50;;;;;;5023482;28;20033;-76
2020/12/13 06:15:24;;;;;;;6.88;3.90;;;9.30;70.70;;;;;;5025074;28;20056;-77
2020/12/13 06:17:50;;;;;;;6.15;3.85;;;9.20;70.60;;;;;;5023016;28;20057;-76
2020/12/13 06:20:16;;;;;;;5.38;3.90;;;9.30;70.70;;;;;;5023199;28;20041;-76
2020/12/13 06:22:42;;;;;;;4.40;3.25;;;9.30;70.70;;;;;;5022221;28;20037;-76
2020/12/13 06:25:08;;;;;;;5.03;3.45;;;9.30;70.70;;;;;;5021900;28;20036;-76
2020/12/13 06:27:33;;;;;;;4.47;3.30;;;9.50;70.80;;;;;;5020631;28;20405;-76
2020/12/13 06:29:59;;;;;;;6.05;3.22;;;9.30;70.60;;;;;;5024479;28;20038;-76
2020/12/13 06:32:38;;;;;;;4.10;3.05;;;9.30;70.70;;;;;;5005282;28;20022;-76
2020/12/13 06:35:04;;;;;;;4.18;3.22;;;9.30;70.90;;;;;;5016698;28;20060;-76
2020/12/13 06:37:30;;;;;;;6.43;3.45;;;9.30;70.60;;;;;;5024254;28;20112;-76
2020/12/13 06:39:55;;;;;;;4.57;3.50;;;9.30;70.70;;;;;;5021931;28;20022;-76
2020/12/13 06:42:27;;;;;;;5.57;3.72;;;9.30;70.70;;;;;;5021611;28;20034;-76
2020/12/13 06:45:04;;;;;;;5.10;3.88;;;9.40;70.80;;;;;;5014357;28;20049;-76
2020/12/13 06:47:30;;;;;;;7.30;3.90;;;9.30;70.90;;;;;;5023785;28;20034;-76
2020/12/13 06:49:56;;;;;;;4.75;3.40;;;9.40;70.70;;;;;;5019467;28;20524;-76
2020/12/13 06:52:41;;;;;;;3.83;2.85;;;9.40;70.70;;;;;;5021836;28;20038;-75
2020/12/13 06:55:07;;;;;;;4.53;3.45;;;9.40;71.00;;;;;;5016878;28;20568;-76
2020/12/13 06:57:34;;;;;;;5.35;3.70;;;9.40;70.60;;;;;;5022487;28;20025;-76
2020/12/13 07:00:10;;;;;;;4.53;3.45;;;9.40;70.60;;;;;;5026610;28;20032;-75
2020/12/13 07:02:58;;;;;;;5.47;3.40;;;9.40;70.80;;;;;;5023918;28;20634;-77
2020/12/13 07:05:47;;;;;;;4.80;3.60;;;9.40;70.90;;;;;;5025890;28;20044;-76
2020/12/13 07:08:17;;;;;;;4.10;3.28;;;9.40;70.90;;;;;;5021679;28;20026;-76
2020/12/13 07:10:46;;;;;;;5.57;3.80;;;9.40;70.70;;;;;;5025785;28;20184;-75
2020/12/13 07:13:16;;;;;;;4.40;3.22;;;9.30;70.60;;;;;;5025889;28;20543;-76
2020/12/13 07:16:05;;;;;;;5.63;3.38;;;9.40;70.80;;;;;;5025261;28;20045;-76
2020/12/13 07:18:34;;;;;;;5.78;3.13;;;9.30;70.80;;;;;;5024979;28;20068;-75
2020/12/13 07:21:00;;;;;;;5.13;3.65;;;9.40;70.80;;;;;;5026239;28;20034;-75
2020/12/13 07:23:26;;;;;;;4.20;3.03;;;9.40;70.80;;;;;;5027963;28;20503;-75
2020/12/13 07:25:52;;;;;;;5.10;3.50;;;9.40;70.80;;;;;;5028575;28;20120;-75
2020/12/13 07:28:18;;;;;;;5.13;3.53;;;9.40;70.70;;;;;;5028375;28;20584;-75
2020/12/13 07:30:45;;;;;;;6.13;3.50;;;9.40;70.70;;;;;;5027884;28;20219;-75
2020/12/13 07:33:11;;;;;;;4.85;3.53;;;9.40;70.60;;;;;;5026804;28;20038;-76
2020/12/13 07:35:36;;;;;;;5.30;3.55;;;9.50;70.60;;;;;;5027456;28;20037;-75
2020/12/13 07:38:02;;;;;;;5.55;3.72;;;9.40;70.60;;;;;;5026558;28;20112;-75
2020/12/13 07:40:28;;;;;;;6.03;4.43;;;9.50;70.60;;;;;;5026302;28;20562;-75
2020/12/13 07:42:58;;;;;;;6.50;3.95;;;9.40;70.60;;;;;;5025758;28;20029;-76
2020/12/13 07:45:23;;;;;;;4.78;3.38;;;9.40;70.60;;;;;;5025713;28;20120;-76
2020/12/13 07:48:00;;;;;;;4.40;3.47;;;9.40;70.60;;;;;;5025022;28;20113;-75
2020/12/13 07:50:52;;;;;;;5.85;3.70;;;9.40;70.70;;;;;;5024269;28;20068;-75
2020/12/13 07:53:25;;;;;;;5.13;3.35;;;9.40;70.90;;;;;;5022426;28;20033;-77
2020/12/13 07:55:51;;;;;;;5.40;3.55;;;9.40;70.60;;;;;;5017578;28;20060;-76
2020/12/13 07:58:19;;;;;;;4.93;3.00;;;9.40;70.60;;;;;;5025782;28;20057;-77
2020/12/13 08:00:46;;;;;;;4.63;3.10;;;9.40;70.70;;;;;;5028180;28;20025;-76
2020/12/13 08:03:12;;;;;;;4.55;3.38;;;9.30;70.70;;;;;;5025259;28;20034;-75
2020/12/13 08:05:41;;;;;;;5.78;4.22;;;9.40;70.80;;;;;;5023823;28;20042;-76
2020/12/13 08:08:07;;;;;;;5.22;3.10;;;9.40;70.80;;;;;;5026098;28;20041;-76
2020/12/13 08:10:33;;;;;;;4.50;3.30;;;9.40;70.90;;;;;;5024193;28;20033;-76
2020/12/13 08:12:59;;;;;;;4.75;3.30;;;9.40;71.00;;;;;;5023669;28;20079;-76
2020/12/13 08:15:25;;;;;;;4.78;2.75;;;9.40;71.00;;;;;;5026378;28;20092;-76
2020/12/13 08:18:04;;;;;;;4.78;3.38;;;9.40;71.00;;;;;;5027896;28;20118;-75
2020/12/13 08:20:33;;;;;;;4.75;3.58;;;9.40;71.30;;;;;;5020740;28;20037;-76
2020/12/13 08:23:02;;;;;;;4.38;3.35;;;9.40;71.10;;;;;;5019787;28;20528;-76
2020/12/13 08:25:28;;;;;;;4.28;2.97;;;9.40;71.10;;;;;;5016458;28;20732;-75
2020/12/13 08:27:57;;;;;;;4.68;3.03;;;9.40;71.00;;;;;;5016216;28;20026;-76
2020/12/13 08:30:24;;;;;;;4.60;3.33;;;9.40;71.10;;;;;;5015953;28;20056;-76
2020/12/13 08:32:51;;;;;;;4.22;3.20;;;9.50;71.10;;;;;;5019037;28;20057;-75
2020/12/13 08:35:18;;;;;;;5.22;3.70;;;9.50;71.20;;;;;;5015894;28;20112;-76
2020/12/13 08:37:56;;;;;;;3.80;2.90;;;9.50;71.10;;;;;;5017576;28;20046;-75
2020/12/13 08:40:38;;;;;;;4.72;3.00;;;9.60;71.20;;;;;;5018354;28;20524;-76
2020/12/13 08:43:05;;;;;;;6.28;3.08;;;9.50;71.20;;;;;;5017917;28;20535;-76
2020/12/13 08:45:31;;;;;;;4.47;3.25;;;9.50;70.90;;;;;;5019270;28;20071;-75
2020/12/13 08:48:01;;;;;;;5.05;3.00;;;9.60;70.90;;;;;;5024710;28;20064;-76
2020/12/13 08:50:27;;;;;;;7.00;3.77;;;9.50;70.90;;;;;;5024802;28;20033;-76
2020/12/13 08:52:53;;;;;;;3.63;3.05;;;9.60;70.90;;;;;;5026208;28;20420;-75
2020/12/13 08:55:26;;;;;;;4.47;3.88;;;9.60;70.90;;;;;;5022830;28;20036;-76
2020/12/13 08:57:58;;;;;;;5.00;3.45;;;9.50;71.00;;;;;;5016765;28;20091;-76
2020/12/13 09:00:26;;;;;;;3.90;2.97;;;9.50;71.00;;;;;;5017500;28;20034;-76
2020/12/13 09:02:56;;;;;;;5.57;3.38;;;9.60;71.00;;;;;;5025116;28;20029;-75
2020/12/13 09:05:28;;;;;;;4.43;3.30;;;9.60;71.20;;;;;;5025200;28;20120;-76
2020/12/13 09:07:56;;;;;;;4.57;3.20;;;9.50;71.70;;;;;;5018043;28;20032;-75
2020/12/13 09:10:22;;;;;;;5.00;3.47;;;9.60;71.20;;;;;;5024406;28;20034;-74
2020/12/13 09:12:48;;;;;;;4.93;3.97;;;9.60;71.20;;;;;;5022687;28;20054;-76
2020/12/13 09:15:19;;;;;;;5.10;2.88;;;9.60;71.20;;;;;;5023460;28;20116;-74
2020/12/13 09:17:54;;;;;;;;;;;9.60;71.20;;;;;;5023971;28;20044;-74
2020/12/13 09:20:36;;;;;;;3.55;2.80;;;9.60;71.60;;;;;;5024347;28;19917;-76
2020/12/13 09:23:07;;;;;;;5.00;3.72;;;9.60;71.10;;;;;;5015729;28;20116;-75
2020/12/13 09:25:41;;;;;;;3.65;2.85;;;9.60;70.90;;;;;;5024964;28;20033;-76
2020/12/13 09:28:07;;;;;;;6.70;3.60;;;9.70;71.10;;;;;;5020780;28;20381;-75
2020/12/13 09:30:33;;;;;;;5.18;3.55;;;9.60;71.10;;;;;;5023186;28;20041;-76
2020/12/13 09:32:59;;;;;;;5.07;4.15;;;9.60;71.10;;;;;;5023297;28;20531;-74
2020/12/13 09:35:29;;;;;;;5.55;3.83;;;9.70;71.20;;;;;;5023827;28;20037;-75
2020/12/13 09:37:55;;;;;;;5.85;4.22;;;9.60;71.20;;;;;;5017462;28;20029;-74
2020/12/13 09:40:20;;;;;;;5.55;3.85;;;9.70;71.20;;;;;;5022573;28;20034;-75
2020/12/13 09:42:46;;;;;;;3.97;3.03;;;9.70;71.30;;;;;;5022117;28;20030;-75
2020/12/13 09:45:11;;;;;;;5.53;4.07;;;9.70;71.30;;;;;;5026650;28;20040;-75
2020/12/13 09:47:37;;;;;;;6.55;4.03;;;9.70;71.30;;;;;;5026335;28;20412;-75
2020/12/13 09:50:03;;;;;;;5.85;3.75;;;9.70;71.30;;;;;;5024123;28;20511;-75
2020/12/13 09:52:30;;;;;;;5.53;3.47;;;9.70;71.30;;;;;;5023366;28;20041;-74
2020/12/13 09:54:57;;;;;;;4.80;3.80;;;9.80;71.40;;;;;;5024418;28;20075;-74
2020/12/13 09:57:22;;;;;;;6.22;3.92;;;9.80;71.40;;;;;;5039707;28;20496;-75
2020/12/13 09:59:48;;;;;;;4.78;3.60;;;9.80;71.50;;;;;;5023809;28;20033;-75
2020/12/13 10:02:13;;;;;;;5.40;3.88;;;9.80;71.50;;;;;;5024200;28;20033;-75
2020/12/13 10:04:39;;;;;;;6.90;3.85;;;9.80;71.60;;;;;;5023888;28;20570;-75
2020/12/13 10:09:30;;;;;;;5.15;3.95;;;9.90;71.70;;;;;;5024004;28;20029;-75
2020/12/13 10:11:55;;;;;;;6.10;4.40;;;9.90;71.70;;;;;;5023349;28;20033;-74
2020/12/13 10:14:21;;;;;;;7.53;4.78;;;9.90;71.70;;;;;;5021526;28;20045;-74
2020/12/13 10:16:46;;;;;;;6.03;3.67;;;10.00;71.70;;;;;;5023570;28;20044;-74
2020/12/13 10:19:12;;;;;;;5.55;3.65;;;10.00;71.70;;;;;;5021906;28;20116;-74
2020/12/13 10:21:38;;;;;;;5.65;3.65;;;10.00;71.70;;;;;;5007580;28;20120;-73
2020/12/13 10:24:05;;;;;;;4.80;3.42;;;10.00;71.70;;;;;;5022688;28;20108;-74
2020/12/13 10:26:34;;;;;;;5.18;3.20;;;10.20;71.80;;;;;;5021106;28;20043;-74
2020/12/13 10:29:00;;;;;;;4.97;3.20;;;10.10;71.70;;;;;;5024489;28;20087;-74
2020/12/13 10:31:32;;;;;;;5.97;3.70;;;10.10;71.70;;;;;;5023429;28;20022;-75
2020/12/13 10:33:59;;;;;;;5.10;3.63;;;10.20;71.80;;;;;;5013364;28;20084;-74
2020/12/13 10:36:25;;;;;;;5.03;3.83;;;10.20;71.70;;;;;;5023295;28;20032;-74
2020/12/13 10:38:54;;;;;;;5.28;3.35;;;10.20;71.60;;;;;;5020236;28;20029;-74
2020/12/13 10:41:20;;;;;;;4.40;3.22;;;10.20;71.60;;;;;;5022102;28;20029;-73
2020/12/13 10:43:47;;;;;;;4.35;3.10;;;10.30;71.70;;;;;;5020545;28;20042;-75
2020/12/13 10:46:13;;;;;;;4.28;3.10;;;10.30;71.60;;;;;;5024360;28;20057;-74
2020/12/13 10:48:39;;;;;;;2.95;2.55;;;10.40;71.60;;;;;;5021657;28;20072;-74
2020/12/13 10:51:04;;;;;;;4.47;3.20;;;10.30;71.60;;;;;;5020907;28;20442;-74
2020/12/13 10:53:30;;;;;;;4.15;3.20;;;10.50;71.60;;;;;;5020631;28;20017;-73
2020/12/13 10:55:55;;;;;;;5.53;3.78;;;10.40;71.50;;;;;;5020559;28;20026;-74
2020/12/13 10:58:21;;;;;;;3.72;2.88;;;10.40;71.40;;;;;;5021646;28;20033;-73
2020/12/13 11:00:47;;;;;;;4.40;3.00;;;10.40;71.40;;;;;;5023252;28;20484;-73
2020/12/13 11:03:14;;;;;;;4.20;3.10;;;10.40;71.30;;;;;;5024304;28;20113;-73
2020/12/13 11:05:42;;;;;;;3.85;2.83;;;10.40;71.20;;;;;;5021205;28;20041;-74
2020/12/13 11:08:09;;;;;;;3.60;2.92;;;10.40;71.10;;;;;;5019668;28;20048;-74
2020/12/13 11:10:34;;;;;;;3.95;2.92;;;10.40;71.10;;;;;;5014053;28;20022;-74
2020/12/13 11:13:00;;;;;;;3.50;3.17;;;10.40;71.10;;;;;;5014994;28;20443;-74
2020/12/13 11:15:25;;;;;;;4.82;3.13;;;10.40;71.10;;;;;;5014297;28;20489;-75
2020/12/13 11:17:51;;;;;;;4.60;3.47;;;10.40;71.10;;;;;;5015118;28;20385;-75
2020/12/13 11:20:16;;;;;;;2.97;2.45;;;10.40;71.10;;;;;;5016882;28;20036;-74
2020/12/13 11:22:42;;;;;;;4.00;3.08;;;10.40;71.10;;;;;;5016765;28;20036;-75
2020/12/13 11:25:07;;;;;;;3.70;3.03;;;10.40;71.10;;;;;;5014338;28;20030;-74
2020/12/13 11:27:33;;;;;;;5.00;3.33;;;10.30;71.00;;;;;;5013002;28;20031;-75
2020/12/13 11:29:58;;;;;;;3.80;3.00;;;10.30;71.00;;;;;;5011458;28;20408;-75
2020/12/13 11:32:26;;;;;;;3.95;3.15;;;10.40;71.00;;;;;;5015568;28;20105;-76
2020/12/13 11:34:52;;;;;;;3.78;3.00;;;10.40;71.00;;;;;;5015432;28;20037;-75
2020/12/13 11:37:18;;;;;;;3.78;2.78;;;10.40;71.00;;;;;;5021710;28;20113;-74
2020/12/13 11:39:43;;;;;;;3.83;3.05;;;10.30;71.00;;;;;;5022027;28;20172;-74
2020/12/13 11:42:09;;;;;;;3.88;3.30;;;10.30;71.00;;;;;;5020864;28;20609;-75
2020/12/13 11:44:34;;;;;;;3.70;2.80;;;10.40;71.00;;;;;;5020862;28;20040;-75
2020/12/13 11:47:00;;;;;;;3.97;2.80;;;10.50;71.10;;;;;;5022367;28;20408;-74
2020/12/13 11:49:26;;;;;;;3.60;2.75;;;10.30;71.00;;;;;;5027187;28;20041;-75
2020/12/13 11:51:51;;;;;;;3.53;2.88;;;10.30;71.00;;;;;;5026290;28;20034;-75
2020/12/13 11:54:17;;;;;;;3.85;2.60;;;10.30;70.90;;;;;;5023222;28;20480;-74
2020/12/13 11:56:42;;;;;;;3.28;2.55;;;10.40;71.00;;;;;;5028371;28;20037;-73
2020/12/13 11:59:08;;;;;;;3.13;2.60;;;10.30;70.90;;;;;;5028406;28;20025;-73
2020/12/13 12:01:34;;;;;;;3.00;2.58;;;10.30;70.80;;;;;;5021676;28;20040;-74
2020/12/13 12:04:00;;;;;;;3.35;2.85;;;10.30;70.70;;;;;;5020519;28;20030;-74
2020/12/13 12:06:26;;;;;;;3.38;2.95;;;10.30;70.70;;;;;;5022985;28;20026;-74
2020/12/13 12:08:52;;;;;;;3.03;2.58;;;10.30;70.60;;;;;;5016717;28;20021;-74
2020/12/13 12:11:19;;;;;;;3.97;2.90;;;10.30;70.60;;;;;;5014782;28;20026;-74
2020/12/13 12:13:45;;;;;;;3.78;2.97;;;10.20;70.60;;;;;;5018885;28;20038;-74
2020/12/13 12:16:11;;;;;;;2.85;2.25;;;10.20;70.60;;;;;;5017369;28;20022;-74
2020/12/13 12:18:36;;;;;;;3.65;2.83;;;10.20;70.60;;;;;;5018273;28;20037;-74
2020/12/13 12:21:07;;;;;;;3.25;2.80;;;10.10;70.60;;;;;;5026499;28;20033;-75
2020/12/13 12:23:32;;;;;;;3.30;2.85;;;10.10;70.60;;;;;;5024082;28;20018;-75
2020/12/13 12:25:58;;;;;;;4.10;3.05;;;10.20;70.80;;;;;;5027691;28;20150;-75
2020/12/13 12:28:23;;;;;;;4.65;3.40;;;10.20;70.80;;;;;;5012483;28;20041;-74
2020/12/13 12:30:49;;;;;;;3.38;2.72;;;10.10;70.90;;;;;;5017569;28;20040;-75
2020/12/13 12:33:14;;;;;;;3.17;2.88;;;10.10;70.90;;;;;;5014144;28;20489;-75
2020/12/13 12:35:42;;;;;;;3.80;2.95;;;10.30;71.10;;;;;;5020089;28;20425;-73
2020/12/13 12:38:08;;;;;;;3.80;2.90;;;10.20;71.00;;;;;;5015691;28;20133;-73
2020/12/13 12:40:34;;;;;;;4.20;3.55;;;10.20;71.00;;;;;;5018071;28;20037;-73
2020/12/13 12:42:59;;;;;;;3.80;2.47;;;10.20;71.00;;;;;;5019693;28;20029;-73
2020/12/13 12:45:25;;;;;;;3.47;2.60;;;10.20;71.40;;;;;;5018641;28;20461;-74
2020/12/13 12:47:50;;;;;;;4.05;3.20;;;10.20;70.80;;;;;;5017082;28;20033;-74
2020/12/13 12:50:16;;;;;;;3.67;3.05;;;10.20;70.80;;;;;;5018538;28;20034;-74
2020/12/13 12:52:41;;;;;;;4.15;3.22;;;10.10;70.70;;;;;;5016598;28;20030;-75
2020/12/13 12:55:07;;;;;;;4.13;3.00;;;10.20;70.80;;;;;;5018506;28;20083;-75
2020/12/13 12:57:32;;;;;;;4.07;3.17;;;10.20;70.90;;;;;;5019312;28;20041;-72
2020/12/13 13:02:42;;;;;;;4.55;3.60;;;10.20;71.10;;;;;;5017483;28;20091;-73
2020/12/13 13:05:20;;;;;;;4.13;3.45;;;10.20;71.00;;;;;;5000408;28;20034;-73